Terminal Aerodrome Forecast
Issued by NWS Wilmington, OH

Current Version | Previous Version | Graphics & Text | Print | Product List | Glossary On
Versions: 1 2 3 4 5 6 7 8 9 10 11 12 13 14 15 16
766
FTUS41 KILN 270548
TAFDAY
TAF
KDAY 270548Z 2706/2806 17010G16KT P6SM BKN250 WS020/19045KT
     FM271000 18013G23KT P6SM BKN150 WS020/20045KT
     FM271200 18015G25KT P6SM VCSH BKN050
     FM271500 21017G27KT P6SM VCSH BKN035
     FM271700 22017G27KT P6SM BKN035
     FM280000 24012KT P6SM BKN040
     FM280300 24008KT P6SM SCT080=

USA.gov is the U.S. government's official web portal to all federal, state and local government web resources and services.